createdAt,value
2018-04-27T00:00:27.390Z,0.00
2018-04-27T00:01:27.675Z,0.00
2018-04-27T00:02:27.471Z,0.00
2018-04-27T00:03:27.926Z,0.00
2018-04-27T00:04:27.530Z,0.00
2018-04-27T00:05:27.549Z,0.00
2018-04-27T00:06:27.574Z,0.00
2018-04-27T00:07:27.622Z,0.00
2018-04-27T00:08:27.639Z,0.00
2018-04-27T00:09:28.216Z,0.00
2018-04-27T00:10:29.192Z,0.00
2018-04-27T00:11:27.722Z,0.00
2018-04-27T00:12:27.851Z,0.00
2018-04-27T00:13:27.782Z,0.00
2018-04-27T00:14:27.850Z,0.00
2018-04-27T00:15:28.110Z,0.00
2018-04-27T00:16:28.179Z,0.00
2018-04-27T00:17:27.955Z,0.00
2018-04-27T00:18:27.950Z,0.00
2018-04-27T00:19:27.964Z,0.00
2018-04-27T00:20:28.001Z,0.00
2018-04-27T00:21:28.024Z,0.00
2018-04-27T00:22:28.373Z,0.00
2018-04-27T00:23:28.088Z,0.00
2018-04-27T00:24:28.492Z,0.00
2018-04-27T00:25:28.147Z,0.00
2018-04-27T00:26:29.379Z,0.00
2018-04-27T00:27:28.361Z,0.00
2018-04-27T00:28:28.238Z,0.00
2018-04-27T00:29:28.569Z,0.00
2018-04-27T00:30:28.301Z,0.00
2018-04-27T00:31:28.355Z,0.00
2018-04-27T00:32:28.359Z,0.00
2018-04-27T00:33:28.414Z,0.00
2018-04-27T00:34:28.491Z,0.00
2018-04-27T00:35:28.501Z,0.00
2018-04-27T00:36:28.793Z,0.00
2018-04-27T00:37:28.516Z,0.00
2018-04-27T00:38:28.546Z,0.00
2018-04-27T00:39:28.575Z,0.00
2018-04-27T00:40:28.643Z,0.00
2018-04-27T00:41:28.634Z,0.00
2018-04-27T00:42:28.967Z,0.00
2018-04-27T00:43:28.746Z,0.00
2018-04-27T00:44:28.745Z,0.00
2018-04-27T00:45:28.760Z,0.00
2018-04-27T00:46:29.019Z,0.00
2018-04-27T00:47:28.867Z,0.00
2018-04-27T00:48:29.144Z,0.00
2018-04-27T00:49:28.875Z,0.00
2018-04-27T00:50:28.909Z,0.00
2018-04-27T00:51:28.978Z,0.00
2018-04-27T00:52:28.991Z,0.00
2018-04-27T00:53:30.202Z,0.00
2018-04-27T00:54:29.335Z,0.00
2018-04-27T00:55:29.863Z,0.00
2018-04-27T00:56:29.091Z,0.00
2018-04-27T00:57:29.183Z,0.00
2018-04-27T00:58:29.145Z,0.00
2018-04-27T00:59:29.214Z,0.00
2018-04-27T01:00:29.512Z,0.00
2018-04-27T01:01:29.240Z,0.00
2018-04-27T01:02:29.735Z,0.00
2018-04-27T01:03:29.350Z,0.00
2018-04-27T01:04:29.326Z,0.00
2018-04-27T01:05:29.416Z,0.00
2018-04-27T01:06:29.780Z,0.00
2018-04-27T01:07:29.430Z,0.00
2018-04-27T01:08:29.450Z,0.00
2018-04-27T01:09:29.478Z,0.00
2018-04-27T01:10:29.544Z,0.00
2018-04-27T01:11:29.538Z,0.00
2018-04-27T01:12:29.876Z,0.00
2018-04-27T01:13:29.804Z,0.00
2018-04-27T01:14:29.632Z,0.00
2018-04-27T01:15:29.667Z,0.00
2018-04-27T01:16:29.689Z,0.00
2018-04-27T01:17:29.720Z,0.00
2018-04-27T01:18:30.053Z,0.00
2018-04-27T01:19:29.780Z,0.00
2018-04-27T01:20:29.873Z,0.00
2018-04-27T01:21:29.843Z,0.00
2018-04-27T01:22:31.073Z,0.00
2018-04-27T01:23:29.907Z,0.00
2018-04-27T01:24:30.784Z,0.00
2018-04-27T01:25:29.959Z,0.00
2018-04-27T01:26:29.996Z,0.00
2018-04-27T01:27:30.021Z,0.00
2018-04-27T01:28:30.055Z,0.00
2018-04-27T01:29:30.083Z,0.00
2018-04-27T01:30:30.426Z,0.00
2018-04-27T01:31:30.139Z,0.00
2018-04-27T01:32:30.220Z,0.00
2018-04-27T01:33:30.249Z,0.00
2018-04-27T01:34:30.276Z,0.00
2018-04-27T01:35:31.486Z,0.00
2018-04-27T01:36:30.594Z,0.00
2018-04-27T01:37:30.322Z,0.00
2018-04-27T01:38:30.349Z,0.00
2018-04-27T01:39:30.382Z,0.00
2018-04-27T01:40:30.407Z,0.00
2018-04-27T01:41:30.449Z,0.00
2018-04-27T01:42:30.768Z,0.00
2018-04-27T01:43:30.499Z,0.00
2018-04-27T01:44:30.835Z,0.00
2018-04-27T01:45:30.573Z,0.00
2018-04-27T01:46:31.183Z,0.00
2018-04-27T01:47:30.623Z,0.00
2018-04-27T01:48:30.949Z,0.00
2018-04-27T01:49:30.677Z,0.00
2018-04-27T01:50:30.777Z,0.00
2018-04-27T01:51:30.945Z,0.00
2018-04-27T01:52:30.772Z,0.00
2018-04-27T01:53:30.832Z,0.00
2018-04-27T01:54:30.834Z,0.00
2018-04-27T01:55:31.171Z,0.00
2018-04-27T01:56:30.891Z,0.00
2018-04-27T01:57:30.998Z,0.00
2018-04-27T01:58:30.949Z,0.00
2018-04-27T01:59:30.979Z,0.00
2018-04-27T02:00:31.006Z,0.00
2018-04-27T02:01:31.336Z,0.00
2018-04-27T02:02:31.066Z,0.00
2018-04-27T02:03:31.431Z,0.00
2018-04-27T02:04:31.132Z,0.00
2018-04-27T02:05:31.155Z,0.00
2018-04-27T02:06:31.237Z,0.00
2018-04-27T02:07:31.524Z,0.00
2018-04-27T02:08:31.276Z,0.00
2018-04-27T02:09:31.275Z,0.00
2018-04-27T02:10:31.313Z,0.00
2018-04-27T02:11:31.341Z,0.00
2018-04-27T02:12:31.367Z,0.00
2018-04-27T02:13:31.947Z,0.00
2018-04-27T02:14:31.424Z,0.00
2018-04-27T02:15:31.731Z,0.00
2018-04-27T02:16:31.513Z,0.00
2018-04-27T02:17:31.521Z,0.00
2018-04-27T02:18:31.627Z,0.00
2018-04-27T02:19:31.872Z,0.00
2018-04-27T02:20:31.620Z,0.00
2018-04-27T02:21:31.632Z,0.00
2018-04-27T02:22:31.696Z,0.00
2018-04-27T02:23:31.892Z,0.00
2018-04-27T02:24:31.723Z,0.00
2018-04-27T02:25:32.100Z,0.00
2018-04-27T02:26:31.788Z,0.00
2018-04-27T02:27:31.910Z,0.00
2018-04-27T02:28:31.837Z,0.00
2018-04-27T02:29:31.872Z,0.00
2018-04-27T02:30:31.903Z,0.00
2018-04-27T02:31:32.229Z,0.00
2018-04-27T02:32:31.963Z,0.00
2018-04-27T02:33:31.993Z,0.00
2018-04-27T02:34:32.023Z,0.00
2018-04-27T02:35:32.136Z,0.00
2018-04-27T02:36:32.133Z,0.00
2018-04-27T02:37:32.180Z,0.00
2018-04-27T02:38:32.439Z,0.00
2018-04-27T02:39:32.290Z,0.00
2018-04-27T02:40:32.194Z,0.00
2018-04-27T02:41:32.325Z,0.00
2018-04-27T02:42:32.258Z,0.00
2018-04-27T02:43:32.504Z,0.00
2018-04-27T02:44:32.616Z,0.00
2018-04-27T02:45:32.421Z,0.00
2018-04-27T02:46:32.376Z,0.00
2018-04-27T02:47:32.400Z,0.00
2018-04-27T02:48:32.433Z,0.00
2018-04-27T02:49:32.468Z,0.00
2018-04-27T02:50:32.819Z,0.00
2018-04-27T02:51:32.519Z,0.00
2018-04-27T02:52:32.576Z,0.00
2018-04-27T02:53:32.585Z,0.00
2018-04-27T02:54:32.634Z,0.00
2018-04-27T02:55:32.743Z,0.00
2018-04-27T02:56:32.973Z,0.00
2018-04-27T02:57:32.708Z,0.00
2018-04-27T02:58:32.747Z,0.00
2018-04-27T02:59:32.767Z,0.00
2018-04-27T03:00:32.788Z,0.00
2018-04-27T03:01:32.821Z,0.00
2018-04-27T03:02:32.847Z,0.00
2018-04-27T03:03:33.258Z,0.00
2018-04-27T03:04:32.914Z,0.00
2018-04-27T03:05:32.981Z,0.00
2018-04-27T03:06:32.975Z,0.00
2018-04-27T03:07:33.001Z,0.00
2018-04-27T03:08:33.030Z,0.00
2018-04-27T03:09:33.055Z,0.00
2018-04-27T03:10:33.388Z,0.00
2018-04-27T03:11:33.220Z,0.00
2018-04-27T03:12:33.384Z,0.00
2018-04-27T03:13:33.274Z,0.00
2018-04-27T03:14:33.207Z,0.00
2018-04-27T03:15:33.231Z,0.00
2018-04-27T03:16:33.562Z,0.00
2018-04-27T03:17:33.293Z,0.00
2018-04-27T03:18:33.320Z,0.00
2018-04-27T03:19:33.368Z,0.00
2018-04-27T03:20:33.392Z,0.00
2018-04-27T03:21:33.423Z,0.00
2018-04-27T03:22:33.839Z,0.00
2018-04-27T03:23:33.470Z,0.00
2018-04-27T03:24:33.496Z,0.00
2018-04-27T03:25:33.530Z,0.00
2018-04-27T03:26:34.359Z,0.00
2018-04-27T03:27:33.642Z,0.00
2018-04-27T03:28:33.936Z,0.00
2018-04-27T03:29:33.653Z,0.00
2018-04-27T03:30:33.679Z,0.00
2018-04-27T03:31:33.919Z,0.00
2018-04-27T03:32:33.791Z,0.00
2018-04-27T03:33:33.968Z,0.00
2018-04-27T03:34:34.095Z,0.00
2018-04-27T03:35:33.825Z,0.00
2018-04-27T03:36:33.852Z,0.00
2018-04-27T03:37:33.883Z,0.00
2018-04-27T03:38:33.918Z,0.00
2018-04-27T03:39:33.954Z,0.00
2018-04-27T03:40:34.276Z,0.00
2018-04-27T03:41:34.004Z,0.00
2018-04-27T03:42:34.244Z,0.00
2018-04-27T03:43:35.265Z,0.00
2018-04-27T03:44:34.092Z,0.00
2018-04-27T03:45:34.120Z,0.00
2018-04-27T03:46:34.178Z,0.00
2018-04-27T03:47:34.479Z,0.00
2018-04-27T03:48:34.210Z,0.00
2018-04-27T03:49:34.339Z,0.00
2018-04-27T03:50:34.268Z,0.00
2018-04-27T03:51:34.295Z,0.00
2018-04-27T03:52:34.330Z,0.00
2018-04-27T03:53:34.662Z,0.00
2018-04-27T03:54:34.383Z,0.00
2018-04-27T03:55:34.565Z,0.00
2018-04-27T03:56:34.445Z,0.00
2018-04-27T03:57:34.475Z,0.00
2018-04-27T03:58:34.506Z,0.00
2018-04-27T03:59:34.890Z,0.00
2018-04-27T04:00:34.715Z,0.00
2018-04-27T04:01:34.622Z,0.00
2018-04-27T04:02:34.754Z,0.00
2018-04-27T04:03:34.650Z,0.00
2018-04-27T04:04:34.691Z,0.00
2018-04-27T04:05:35.012Z,0.00
2018-04-27T04:06:34.756Z,0.00
2018-04-27T04:07:34.768Z,0.00
2018-04-27T04:08:34.799Z,0.00
2018-04-27T04:09:34.826Z,0.00
2018-04-27T04:10:34.859Z,0.00
2018-04-27T04:11:34.886Z,0.00
2018-04-27T04:12:35.270Z,0.00
2018-04-27T04:13:34.945Z,0.00
2018-04-27T04:14:35.183Z,0.00
2018-04-27T04:15:35.031Z,0.00
2018-04-27T04:16:35.033Z,0.00
2018-04-27T04:17:35.064Z,0.00
2018-04-27T04:18:35.401Z,0.00
2018-04-27T04:19:35.129Z,0.00
2018-04-27T04:20:35.439Z,0.00
2018-04-27T04:21:35.252Z,0.00
2018-04-27T04:22:35.211Z,0.00
2018-04-27T04:23:35.261Z,0.00
2018-04-27T04:24:35.572Z,0.00
2018-04-27T04:25:35.312Z,5.63
2018-04-27T04:26:35.332Z,5.63
2018-04-27T04:27:35.355Z,5.63
2018-04-27T04:28:35.396Z,5.63
2018-04-27T04:29:35.418Z,5.63
2018-04-27T04:30:35.748Z,5.63
2018-04-27T04:31:35.581Z,5.63
2018-04-27T04:32:35.528Z,5.63
2018-04-27T04:33:35.533Z,5.63
2018-04-27T04:34:35.616Z,5.63
2018-04-27T04:35:35.650Z,5.63
2018-04-27T04:36:35.920Z,5.63
2018-04-27T04:37:35.659Z,5.63
2018-04-27T04:38:35.694Z,11.25
2018-04-27T04:39:35.731Z,11.25
2018-04-27T04:40:35.778Z,11.25
2018-04-27T04:41:35.782Z,11.25
2018-04-27T04:42:36.099Z,11.25
2018-04-27T04:43:35.830Z,11.25
2018-04-27T04:44:35.938Z,11.25
2018-04-27T04:45:35.884Z,11.25
2018-04-27T04:46:35.917Z,11.25
2018-04-27T04:47:35.946Z,16.88
2018-04-27T04:48:36.274Z,16.88
2018-04-27T04:49:36.004Z,16.88
2018-04-27T04:50:36.033Z,16.88
2018-04-27T04:51:36.065Z,16.88
2018-04-27T04:52:36.186Z,16.88
2018-04-27T04:53:36.132Z,16.88
2018-04-27T04:54:36.662Z,16.88
2018-04-27T04:55:36.189Z,22.50
2018-04-27T04:56:36.227Z,22.50
2018-04-27T04:57:36.245Z,22.50
2018-04-27T04:58:36.291Z,22.50
2018-04-27T04:59:36.397Z,22.50
2018-04-27T05:00:36.808Z,22.50
2018-04-27T05:01:36.356Z,22.50
2018-04-27T05:02:36.496Z,22.50
2018-04-27T05:03:36.415Z,22.50
2018-04-27T05:04:36.445Z,22.50
2018-04-27T05:05:36.476Z,22.50
2018-04-27T05:06:36.811Z,22.50
2018-04-27T05:07:36.534Z,28.13
2018-04-27T05:08:36.566Z,28.13
2018-04-27T05:09:36.595Z,28.13
2018-04-27T05:10:36.703Z,28.13
2018-04-27T05:11:36.654Z,28.13
2018-04-27T05:12:37.103Z,28.13
2018-04-27T05:13:36.714Z,28.13
2018-04-27T05:14:36.742Z,28.13
2018-04-27T05:15:37.038Z,28.13
2018-04-27T05:16:36.805Z,28.13
2018-04-27T05:17:36.832Z,33.75
2018-04-27T05:18:37.168Z,33.75
2018-04-27T05:19:37.705Z,33.75
2018-04-27T05:20:37.400Z,33.75
2018-04-27T05:21:36.944Z,33.75
2018-04-27T05:22:36.975Z,33.75
2018-04-27T05:23:37.004Z,33.75
2018-04-27T05:24:37.336Z,39.38
2018-04-27T05:25:37.183Z,39.38
2018-04-27T05:26:37.107Z,39.38
2018-04-27T05:27:37.125Z,39.38
2018-04-27T05:28:37.162Z,39.38
2018-04-27T05:29:37.397Z,39.38
2018-04-27T05:30:37.519Z,39.38
2018-04-27T05:31:37.249Z,45.00
2018-04-27T05:32:37.272Z,45.00
2018-04-27T05:33:37.323Z,45.00
2018-04-27T05:34:37.338Z,45.00
2018-04-27T05:35:37.443Z,45.00
2018-04-27T05:36:37.698Z,45.00
2018-04-27T05:37:37.420Z,45.00
2018-04-27T05:38:37.449Z,45.00
2018-04-27T05:39:37.478Z,45.00
2018-04-27T05:40:37.565Z,45.00
2018-04-27T05:41:37.535Z,45.00
2018-04-27T05:42:37.884Z,50.63
2018-04-27T05:44:37.626Z,50.63
2018-04-27T05:45:37.664Z,50.63
2018-04-27T05:46:37.687Z,50.63
2018-04-27T05:47:37.722Z,50.63
2018-04-27T05:48:38.041Z,50.63
2018-04-27T05:49:37.771Z,50.63
2018-04-27T05:50:37.855Z,50.63
2018-04-27T05:51:37.933Z,50.63
2018-04-27T05:52:37.915Z,50.63
2018-04-27T05:53:37.894Z,50.63
2018-04-27T05:54:38.221Z,50.63
2018-04-27T05:55:37.978Z,50.63
2018-04-27T05:56:38.087Z,50.63
2018-04-27T05:57:38.057Z,50.63
2018-04-27T05:58:38.045Z,50.63
2018-04-27T05:59:38.074Z,50.63
2018-04-27T06:00:38.757Z,50.63
2018-04-27T06:01:38.153Z,50.63
2018-04-27T06:02:38.171Z,56.25
2018-04-27T06:03:38.192Z,56.25
2018-04-27T06:04:38.285Z,56.25
2018-04-27T06:05:38.250Z,56.25
2018-04-27T06:06:38.812Z,61.88
2018-04-27T06:07:38.311Z,61.88
2018-04-27T06:08:38.449Z,61.88
2018-04-27T06:09:38.429Z,61.88
2018-04-27T06:10:38.447Z,61.88
2018-04-27T06:11:38.458Z,61.88
2018-04-27T06:12:38.768Z,61.88
2018-04-27T06:13:38.790Z,61.88
2018-04-27T06:14:38.524Z,61.88
2018-04-27T06:15:38.782Z,61.88
2018-04-27T06:16:38.580Z,61.88
2018-04-27T06:17:38.692Z,61.88
2018-04-27T06:18:39.138Z,61.88
2018-04-27T06:19:38.673Z,61.88
2018-04-27T06:20:38.772Z,67.50
2018-04-27T06:21:38.732Z,67.50
2018-04-27T06:22:39.963Z,67.50
2018-04-27T06:23:39.196Z,67.50
2018-04-27T06:24:39.124Z,67.50
2018-04-27T06:25:38.856Z,67.50
2018-04-27T06:26:38.901Z,73.13
2018-04-27T06:27:38.911Z,73.13
2018-04-27T06:28:38.956Z,73.13
2018-04-27T06:29:40.190Z,78.75
2018-04-27T06:30:39.309Z,84.38
2018-04-27T06:31:39.033Z,84.38
2018-04-27T06:32:39.068Z,84.38
2018-04-27T06:33:39.097Z,84.38
2018-04-27T06:34:39.136Z,90.00
2018-04-27T06:35:39.359Z,90.00
2018-04-27T06:36:39.702Z,90.00
2018-04-27T06:37:39.231Z,90.00
2018-04-27T06:38:39.252Z,90.00
2018-04-27T06:39:39.283Z,90.00
2018-04-27T06:40:39.328Z,90.00
2018-04-27T06:41:39.342Z,90.00
2018-04-27T06:42:39.727Z,90.00
2018-04-27T06:43:39.444Z,90.00
2018-04-27T06:44:39.433Z,90.00
2018-04-27T06:45:39.467Z,90.00
2018-04-27T06:46:39.896Z,90.00
2018-04-27T06:47:39.528Z,90.00
2018-04-27T06:48:39.854Z,95.63
2018-04-27T06:49:39.589Z,95.63
2018-04-27T06:50:39.619Z,95.63
2018-04-27T06:51:39.643Z,95.63
2018-04-27T06:52:40.086Z,95.63
2018-04-27T06:53:39.716Z,95.63
2018-04-27T06:54:40.039Z,95.63
2018-04-27T06:55:39.767Z,95.63
2018-04-27T06:56:39.805Z,101.25
2018-04-27T06:57:39.835Z,101.25
2018-04-27T06:58:41.073Z,101.25
2018-04-27T06:59:39.890Z,101.25
2018-04-27T07:00:40.230Z,106.88
2018-04-27T07:01:39.958Z,106.88
2018-04-27T07:02:40.417Z,106.88
2018-04-27T07:03:41.268Z,106.88
2018-04-27T07:04:40.109Z,112.50
2018-04-27T07:05:40.079Z,112.50
2018-04-27T07:06:40.410Z,112.50
2018-04-27T07:07:40.134Z,112.50
2018-04-27T07:08:40.170Z,112.50
2018-04-27T07:09:40.204Z,112.50
2018-04-27T07:10:40.238Z,112.50
2018-04-27T07:11:40.325Z,112.50
2018-04-27T07:12:40.789Z,112.50
2018-04-27T07:13:40.373Z,106.88
2018-04-27T07:14:40.354Z,106.88
2018-04-27T07:15:40.383Z,106.88
2018-04-27T07:16:40.434Z,106.88
2018-04-27T07:17:40.459Z,106.88
2018-04-27T07:18:40.784Z,106.88
2018-04-27T07:19:40.503Z,106.88
2018-04-27T07:20:40.561Z,106.88
2018-04-27T07:21:40.576Z,106.88
2018-04-27T07:22:40.800Z,101.25
2018-04-27T07:23:41.829Z,101.25
2018-04-27T07:24:41.018Z,95.63
2018-04-27T07:25:40.696Z,95.63
2018-04-27T07:26:40.732Z,95.63
2018-04-27T07:27:40.770Z,95.63
2018-04-27T07:28:40.801Z,101.25
2018-04-27T07:29:40.833Z,95.63
2018-04-27T07:30:41.807Z,95.63
2018-04-27T07:31:40.935Z,95.63
2018-04-27T07:33:40.939Z,95.63
2018-04-27T07:34:40.980Z,95.63
2018-04-27T07:35:41.028Z,90.00
2018-04-27T07:36:41.388Z,90.00
2018-04-27T07:37:41.064Z,90.00
2018-04-27T07:38:41.096Z,90.00
2018-04-27T07:39:41.175Z,90.00
2018-04-27T07:40:41.159Z,95.63
2018-04-27T07:41:41.256Z,90.00
2018-04-27T07:42:42.021Z,90.00
2018-04-27T07:43:41.260Z,90.00
2018-04-27T07:44:41.288Z,90.00
2018-04-27T07:45:41.312Z,90.00
2018-04-27T07:46:42.545Z,84.38
2018-04-27T07:47:41.374Z,84.38
2018-04-27T07:48:41.707Z,90.00
2018-04-27T07:49:42.641Z,90.00
2018-04-27T07:50:41.480Z,90.00
2018-04-27T07:51:41.725Z,95.63
2018-04-27T07:52:41.535Z,101.25
2018-04-27T07:53:41.564Z,101.25
2018-04-27T07:54:41.901Z,101.25
2018-04-27T07:55:41.625Z,101.25
2018-04-27T07:56:41.706Z,106.88
2018-04-27T07:57:41.687Z,101.25
2018-04-27T07:58:41.751Z,106.88
2018-04-27T07:59:41.771Z,106.88
2018-04-27T08:00:42.121Z,106.88
2018-04-27T08:01:41.820Z,106.88
2018-04-27T08:02:41.844Z,106.88
2018-04-27T08:03:41.880Z,106.88
2018-04-27T08:04:41.917Z,106.88
2018-04-27T08:05:42.029Z,106.88
2018-04-27T08:06:42.267Z,106.88
2018-04-27T08:07:42.048Z,106.88
2018-04-27T08:08:43.229Z,106.88
2018-04-27T08:09:42.153Z,112.50
2018-04-27T08:10:42.091Z,112.50
2018-04-27T08:11:42.130Z,118.13
2018-04-27T08:12:42.553Z,123.75
2018-04-27T08:13:42.189Z,129.38
2018-04-27T08:14:42.226Z,129.38
2018-04-27T08:15:42.247Z,129.38
2018-04-27T08:16:42.356Z,129.38
2018-04-27T08:17:42.641Z,123.75
2018-04-27T08:18:42.678Z,123.75
2018-04-27T08:19:43.581Z,118.13
2018-04-27T08:20:42.416Z,112.50
2018-04-27T08:21:42.446Z,112.50
2018-04-27T08:22:42.470Z,112.50
2018-04-27T08:23:42.530Z,106.88
2018-04-27T08:24:42.837Z,106.88
2018-04-27T08:25:42.569Z,112.50
2018-04-27T08:26:42.605Z,112.50
2018-04-27T08:27:42.631Z,112.50
2018-04-27T08:28:42.667Z,118.13
2018-04-27T08:29:42.746Z,123.75
2018-04-27T08:30:43.031Z,123.75
2018-04-27T08:31:42.756Z,129.38
2018-04-27T08:32:43.987Z,129.38
2018-04-27T08:33:42.824Z,129.38
2018-04-27T08:34:42.850Z,135.00
2018-04-27T08:35:42.941Z,129.38
2018-04-27T08:36:43.216Z,129.38
2018-04-27T08:37:42.957Z,129.38
2018-04-27T08:38:42.983Z,135.00
2018-04-27T08:39:43.002Z,135.00
2018-04-27T08:40:43.033Z,129.38
2018-04-27T08:41:44.507Z,129.38
2018-04-27T08:42:43.400Z,135.00
2018-04-27T08:43:43.189Z,140.63
2018-04-27T08:44:43.160Z,140.63
2018-04-27T08:45:43.446Z,140.63
2018-04-27T08:46:43.227Z,140.63
2018-04-27T08:47:43.258Z,140.63
2018-04-27T08:48:43.590Z,146.25
2018-04-27T08:49:43.324Z,146.25
2018-04-27T08:50:43.368Z,146.25
2018-04-27T08:51:43.391Z,151.88
2018-04-27T08:52:43.427Z,151.88
2018-04-27T08:53:43.446Z,151.88
2018-04-27T08:54:43.778Z,157.50
2018-04-27T08:55:43.708Z,157.50
2018-04-27T08:56:43.541Z,157.50
2018-04-27T08:57:43.575Z,157.50
2018-04-27T08:58:43.617Z,157.50
2018-04-27T08:59:44.887Z,163.13
2018-04-27T09:00:43.974Z,163.13
2018-04-27T09:01:43.705Z,163.13
2018-04-27T09:02:43.839Z,163.13
2018-04-27T09:03:43.766Z,163.13
2018-04-27T09:04:43.810Z,163.13
2018-04-27T09:05:43.893Z,163.13
2018-04-27T09:06:44.172Z,163.13
2018-04-27T09:07:43.981Z,163.13
2018-04-27T09:08:43.936Z,163.13
2018-04-27T09:09:43.961Z,163.13
2018-04-27T09:10:44.020Z,163.13
2018-04-27T09:11:44.223Z,163.13
2018-04-27T09:12:44.352Z,163.13
2018-04-27T09:13:44.338Z,163.13
2018-04-27T09:14:44.138Z,157.50
2018-04-27T09:15:44.158Z,157.50
2018-04-27T09:16:44.402Z,151.88
2018-04-27T09:17:44.240Z,151.88
2018-04-27T09:18:44.557Z,157.50
2018-04-27T09:19:44.280Z,157.50
2018-04-27T09:20:44.315Z,157.50
2018-04-27T09:21:44.348Z,163.13
2018-04-27T09:22:44.426Z,163.13
2018-04-27T09:23:44.415Z,168.75
2018-04-27T09:24:44.744Z,168.75
2018-04-27T09:25:44.476Z,168.75
2018-04-27T09:26:44.508Z,174.38
2018-04-27T09:27:44.542Z,174.38
2018-04-27T09:28:44.570Z,174.38
2018-04-27T09:29:44.605Z,180.00
2018-04-27T09:30:44.945Z,185.63
2018-04-27T09:31:44.723Z,185.63
2018-04-27T09:32:44.717Z,185.63
2018-04-27T09:33:44.764Z,191.25
2018-04-27T09:34:44.773Z,191.25
2018-04-27T09:35:44.814Z,191.25
2018-04-27T09:36:45.132Z,191.25
2018-04-27T09:37:44.864Z,191.25
2018-04-27T09:38:44.896Z,191.25
2018-04-27T09:39:44.926Z,191.25
2018-04-27T09:40:44.959Z,191.25
2018-04-27T09:41:44.995Z,191.25
2018-04-27T09:42:45.533Z,185.63
2018-04-27T09:43:46.261Z,191.25
2018-04-27T09:44:45.124Z,191.25
2018-04-27T09:45:46.331Z,191.25
2018-04-27T09:46:45.163Z,191.25
2018-04-27T09:47:45.191Z,185.63
2018-04-27T09:48:45.526Z,185.63
2018-04-27T09:49:46.452Z,180.00
2018-04-27T09:50:45.290Z,180.00
2018-04-27T09:51:45.442Z,180.00
2018-04-27T09:52:45.403Z,174.38
2018-04-27T09:53:46.588Z,174.38
2018-04-27T09:54:46.944Z,174.38
2018-04-27T09:55:45.450Z,174.38
2018-04-27T09:56:45.732Z,168.75
2018-04-27T09:57:45.539Z,168.75
2018-04-27T09:58:45.551Z,168.75
2018-04-27T09:59:45.603Z,174.38
2018-04-27T10:00:45.922Z,180.00
2018-04-27T10:01:45.647Z,180.00
2018-04-27T10:02:45.680Z,180.00
2018-04-27T10:03:45.710Z,180.00
2018-04-27T10:04:45.749Z,185.63
2018-04-27T10:05:45.919Z,185.63
2018-04-27T10:06:46.115Z,185.63
2018-04-27T10:07:45.850Z,191.25
2018-04-27T10:08:45.923Z,191.25
2018-04-27T10:09:45.908Z,191.25
2018-04-27T10:10:45.942Z,191.25
2018-04-27T10:11:46.525Z,191.25
2018-04-27T10:12:46.304Z,185.63
2018-04-27T10:13:46.046Z,180.00
2018-04-27T10:14:46.083Z,174.38
2018-04-27T10:15:46.131Z,174.38
2018-04-27T10:16:46.142Z,174.38
2018-04-27T10:17:46.242Z,174.38
2018-04-27T10:18:46.519Z,180.00
2018-04-27T10:19:46.314Z,180.00
2018-04-27T10:20:46.273Z,185.63
2018-04-27T10:21:46.332Z,191.25
2018-04-27T10:22:46.340Z,196.88
2018-04-27T10:23:46.367Z,202.50
2018-04-27T10:24:46.711Z,202.50
2018-04-27T10:25:47.190Z,202.50
2018-04-27T10:26:46.625Z,202.50
2018-04-27T10:27:46.515Z,202.50
2018-04-27T10:28:46.540Z,196.88
2018-04-27T10:29:46.581Z,196.88
2018-04-27T10:30:46.907Z,191.25
2018-04-27T10:31:46.690Z,185.63
2018-04-27T10:32:46.671Z,185.63
2018-04-27T10:33:46.698Z,185.63
2018-04-27T10:34:46.730Z,185.63
2018-04-27T10:35:46.969Z,180.00
2018-04-27T10:36:47.099Z,180.00
2018-04-27T10:37:46.829Z,180.00
2018-04-27T10:38:46.885Z,185.63
2018-04-27T10:39:46.910Z,196.88
2018-04-27T10:40:46.928Z,202.50
2018-04-27T10:41:47.114Z,202.50
2018-04-27T10:42:47.350Z,208.13
2018-04-27T10:43:47.035Z,213.75
2018-04-27T10:44:47.060Z,208.13
2018-04-27T10:45:47.094Z,208.13
2018-04-27T10:46:47.134Z,208.13
2018-04-27T10:47:47.159Z,208.13
2018-04-27T10:48:47.492Z,208.13
2018-04-27T10:49:47.431Z,208.13
2018-04-27T10:50:47.324Z,208.13
2018-04-27T10:51:47.295Z,213.75
2018-04-27T10:52:47.336Z,219.38
2018-04-27T10:53:47.373Z,225.00
2018-04-27T10:54:47.703Z,230.63
2018-04-27T10:55:47.441Z,230.63
2018-04-27T10:56:47.462Z,230.63
2018-04-27T10:57:47.496Z,230.63
2018-04-27T10:58:47.528Z,236.25
2018-04-27T10:59:47.566Z,236.25
2018-04-27T11:00:47.894Z,241.88
2018-04-27T11:01:47.628Z,241.88
2018-04-27T11:02:47.661Z,241.88
2018-04-27T11:03:48.105Z,241.88
2018-04-27T11:04:47.730Z,236.25
2018-04-27T11:05:47.760Z,230.63
2018-04-27T11:06:48.094Z,225.00
2018-04-27T11:07:47.824Z,225.00
2018-04-27T11:08:47.860Z,219.38
2018-04-27T11:09:47.900Z,219.38
2018-04-27T11:10:47.926Z,213.75
2018-04-27T11:11:47.972Z,208.13
2018-04-27T11:12:48.305Z,202.50
2018-04-27T11:13:48.042Z,208.13
2018-04-27T11:14:48.079Z,213.75
2018-04-27T11:15:48.102Z,213.75
2018-04-27T11:16:48.228Z,213.75
2018-04-27T11:17:48.260Z,219.38
2018-04-27T11:18:48.501Z,219.38
2018-04-27T11:19:48.230Z,219.38
2018-04-27T11:20:48.265Z,213.75
2018-04-27T11:21:48.298Z,213.75
2018-04-27T11:22:48.330Z,213.75
2018-04-27T11:23:48.369Z,219.38
2018-04-27T11:24:48.842Z,219.38
2018-04-27T11:25:48.435Z,219.38
2018-04-27T11:26:48.610Z,213.75
2018-04-27T11:27:48.499Z,213.75
2018-04-27T11:28:48.619Z,213.75
2018-04-27T11:29:49.762Z,213.75
2018-04-27T11:30:48.900Z,219.38
2018-04-27T11:31:48.630Z,225.00
2018-04-27T11:32:48.668Z,225.00
2018-04-27T11:33:48.898Z,225.00
2018-04-27T11:34:48.734Z,225.00
2018-04-27T11:35:48.764Z,225.00
2018-04-27T11:36:49.102Z,225.00
2018-04-27T11:37:48.890Z,230.63
2018-04-27T11:38:48.875Z,230.63
2018-04-27T11:39:48.897Z,225.00
2018-04-27T11:40:48.986Z,236.25
2018-04-27T11:41:48.979Z,247.50
2018-04-27T11:42:49.464Z,258.75
2018-04-27T11:43:49.034Z,264.38
2018-04-27T11:44:49.099Z,253.13
2018-04-27T11:45:49.105Z,253.13
2018-04-27T11:46:49.133Z,258.75
2018-04-27T11:47:49.243Z,264.38
2018-04-27T11:48:49.541Z,258.75
2018-04-27T11:49:49.248Z,258.75
2018-04-27T11:50:49.420Z,264.38
2018-04-27T11:51:49.302Z,270.00
2018-04-27T11:52:49.543Z,270.00
2018-04-27T11:53:49.372Z,275.63
2018-04-27T11:54:49.756Z,281.25
2018-04-27T11:55:49.620Z,286.88
2018-04-27T11:56:49.471Z,281.25
2018-04-27T11:57:49.511Z,281.25
2018-04-27T11:58:49.617Z,270.00
2018-04-27T11:59:49.578Z,258.75
2018-04-27T12:00:50.135Z,253.13
2018-04-27T12:01:49.706Z,247.50
2018-04-27T12:02:49.677Z,247.50
2018-04-27T12:03:49.708Z,247.50
2018-04-27T12:04:49.956Z,236.25
2018-04-27T12:05:50.133Z,236.25
2018-04-27T12:06:50.109Z,225.00
2018-04-27T12:07:49.841Z,225.00
2018-04-27T12:08:51.073Z,225.00
2018-04-27T12:09:50.033Z,230.63
2018-04-27T12:10:49.951Z,236.25
2018-04-27T12:11:49.972Z,236.25
2018-04-27T12:12:50.314Z,236.25
2018-04-27T12:13:50.058Z,230.63
2018-04-27T12:14:50.101Z,230.63
2018-04-27T12:15:50.108Z,225.00
2018-04-27T12:16:50.146Z,213.75
2018-04-27T12:17:50.176Z,208.13
2018-04-27T12:18:50.514Z,196.88
2018-04-27T12:19:50.345Z,180.00
2018-04-27T12:20:50.284Z,168.75
2018-04-27T12:21:51.515Z,163.13
2018-04-27T12:22:50.349Z,157.50
2018-04-27T12:23:50.386Z,157.50
2018-04-27T12:24:50.742Z,163.13
2018-04-27T12:25:50.445Z,180.00
2018-04-27T12:26:50.481Z,196.88
2018-04-27T12:27:50.515Z,219.38
2018-04-27T12:28:50.556Z,236.25
2018-04-27T12:29:50.908Z,264.38
2018-04-27T12:30:50.979Z,275.63
2018-04-27T12:31:50.791Z,286.88
2018-04-27T12:32:50.741Z,292.50
2018-04-27T12:33:50.752Z,292.50
2018-04-27T12:34:51.070Z,281.25
2018-04-27T12:35:50.802Z,270.00
2018-04-27T12:36:51.325Z,253.13
2018-04-27T12:37:50.859Z,247.50
2018-04-27T12:38:50.975Z,236.25
2018-04-27T12:39:51.778Z,236.25
2018-04-27T12:40:50.987Z,225.00
2018-04-27T12:41:50.986Z,230.63
2018-04-27T12:42:51.328Z,236.25
2018-04-27T12:43:51.104Z,253.13
2018-04-27T12:44:52.289Z,286.88
2018-04-27T12:45:51.128Z,298.13
2018-04-27T12:46:51.160Z,298.13
2018-04-27T12:47:51.213Z,298.13
2018-04-27T12:48:51.529Z,309.38
2018-04-27T12:49:51.341Z,320.63
2018-04-27T12:50:51.293Z,286.88
2018-04-27T12:51:51.356Z,281.25
2018-04-27T12:52:51.394Z,298.13